Time;durP1;ratioP1;P1;durP2;ratioP2;P2;SDS_P1;SDS_P2;PMS_P1;PMS_P2;Temp;Humidity;BMP_temperature;BMP_pressure;BME280_temperature;BME280_humidity;BME280_pressure;Samples;Min_cycle;Max_cycle;Signal;HPM_P1;HPM_P2
2023/12/17 00:02:22;;;;;;;23.23;16.48;;;4.90;99.90;;;;;;4952656;29;20046;-52
2023/12/17 00:04:48;;;;;;;22.80;15.63;;;5.00;99.90;;;;;;4905676;29;20035;-50
2023/12/17 00:07:14;;;;;;;24.02;16.08;;;4.90;99.90;;;;;;4957324;29;20058;-49
2023/12/17 00:09:40;;;;;;;24.00;17.02;;;5.00;99.90;;;;;;4957012;29;20094;-52
2023/12/17 00:12:06;;;;;;;23.42;16.10;;;4.90;99.90;;;;;;4956918;29;20035;-49
2023/12/17 00:14:32;;;;;;;24.83;16.08;;;4.90;99.90;;;;;;4938937;29;20090;-49
2023/12/17 00:16:57;;;;;;;24.30;16.90;;;4.90;99.90;;;;;;4956844;29;20521;-52
2023/12/17 00:19:23;;;;;;;23.98;16.80;;;4.90;99.90;;;;;;4956474;29;20032;-52
2023/12/17 00:21:49;;;;;;;26.42;18.15;;;5.00;99.90;;;;;;4957105;29;20076;-48
2023/12/17 00:24:15;;;;;;;24.85;18.48;;;4.90;99.90;;;;;;4956778;29;20023;-50
2023/12/17 00:26:40;;;;;;;24.33;16.63;;;4.80;99.90;;;;;;4907044;29;20038;-49
2023/12/17 00:29:06;;;;;;;25.50;16.80;;;4.80;99.90;;;;;;4956835;29;20033;-49
2023/12/17 00:31:32;;;;;;;24.83;16.75;;;4.80;99.90;;;;;;4954645;29;20035;-51
2023/12/17 00:34:00;;;;;;;26.92;18.15;;;4.70;99.90;;;;;;4956671;29;20031;-52
2023/12/17 00:36:26;;;;;;;26.85;18.00;;;4.80;99.90;;;;;;4956631;29;20091;-49
2023/12/17 00:38:51;;;;;;;25.35;17.02;;;4.70;99.90;;;;;;4956533;29;20035;-49
2023/12/17 00:41:17;;;;;;;33.03;21.33;;;4.70;99.90;;;;;;4956574;29;20038;-51
2023/12/17 00:43:43;;;;;;;37.42;24.17;;;4.70;99.90;;;;;;4956466;29;20601;-49
2023/12/17 00:46:09;;;;;;;38.45;25.42;;;4.70;99.90;;;;;;4907126;29;20070;-52
2023/12/17 00:48:35;;;;;;;35.83;21.98;;;4.70;99.90;;;;;;4956437;29;20106;-50
2023/12/17 00:51:01;;;;;;;28.40;18.88;;;4.60;99.90;;;;;;4956318;29;20031;-50
2023/12/17 00:53:26;;;;;;;28.88;19.52;;;4.70;99.90;;;;;;4939091;29;20029;-48
2023/12/17 00:55:52;;;;;;;34.25;21.80;;;4.70;99.90;;;;;;4896705;29;20041;-50
2023/12/17 00:58:18;;;;;;;42.17;26.05;;;4.70;99.90;;;;;;4896618;29;20096;-50
2023/12/17 01:00:44;;;;;;;33.63;20.40;;;4.70;99.90;;;;;;4896806;29;20555;-50
2023/12/17 01:03:09;;;;;;;36.15;23.27;;;4.60;99.90;;;;;;4880861;29;20052;-52
2023/12/17 01:05:36;;;;;;;38.70;23.15;;;4.70;99.90;;;;;;4896711;29;20032;-48
2023/12/17 01:08:01;;;;;;;32.22;19.75;;;4.60;99.90;;;;;;4896839;29;20556;-48
2023/12/17 01:10:27;;;;;;;44.13;26.92;;;4.60;99.90;;;;;;4865169;29;20040;-50
2023/12/17 01:12:53;;;;;;;38.90;24.17;;;4.60;99.90;;;;;;4896467;29;20548;-49
2023/12/17 01:15:18;;;;;;;41.30;24.35;;;4.60;99.90;;;;;;4896242;29;20036;-50
2023/12/17 01:17:44;;;;;;;30.10;19.67;;;4.50;99.90;;;;;;4896441;29;20088;-50
2023/12/17 01:20:10;;;;;;;32.95;20.70;;;4.50;99.90;;;;;;4896484;29;20056;-52
2023/12/17 01:22:36;;;;;;;27.65;17.95;;;4.40;99.90;;;;;;4896283;29;20048;-51
2023/12/17 01:25:02;;;;;;;32.03;20.27;;;4.40;99.90;;;;;;4896549;29;20040;-52
2023/12/17 01:27:28;;;;;;;30.42;18.88;;;4.50;99.90;;;;;;4907627;29;20035;-51
2023/12/17 01:29:53;;;;;;;25.60;17.20;;;4.50;99.90;;;;;;4956110;29;20027;-49
2023/12/17 01:32:19;;;;;;;23.05;16.00;;;4.60;99.90;;;;;;4955655;29;20487;-49
2023/12/17 01:34:45;;;;;;;20.05;14.38;;;4.60;99.90;;;;;;4906292;29;20039;-52
2023/12/17 01:37:10;;;;;;;19.08;14.35;;;4.70;99.90;;;;;;4905942;29;20039;-50
2023/12/17 01:39:36;;;;;;;22.77;16.08;;;4.70;99.90;;;;;;4955349;29;20027;-51
2023/12/17 01:42:02;;;;;;;22.85;14.65;;;4.70;99.90;;;;;;4955471;29;20046;-49
2023/12/17 01:44:27;;;;;;;20.52;13.88;;;4.70;99.90;;;;;;4955593;29;20125;-52
2023/12/17 01:46:53;;;;;;;19.98;13.48;;;4.70;99.90;;;;;;4955392;29;20035;-51
2023/12/17 01:49:19;;;;;;;22.05;14.43;;;4.70;99.90;;;;;;4955418;29;20027;-50
2023/12/17 01:51:45;;;;;;;35.40;21.83;;;4.60;99.90;;;;;;4955267;29;20035;-52
2023/12/17 01:54:11;;;;;;;58.22;34.08;;;4.60;99.90;;;;;;4955192;29;20059;-51
2023/12/17 01:56:36;;;;;;;51.53;28.92;;;4.50;99.90;;;;;;4955254;29;20086;-50
2023/12/17 01:59:02;;;;;;;43.47;24.58;;;4.60;99.90;;;;;;4955018;29;20484;-51
2023/12/17 02:01:28;;;;;;;36.75;22.60;;;4.60;99.90;;;;;;4952872;29;20035;-50
2023/12/17 02:03:55;;;;;;;33.03;20.25;;;4.60;99.90;;;;;;4905374;29;20510;-51
2023/12/17 02:06:21;;;;;;;31.75;18.25;;;4.60;99.90;;;;;;4955048;29;20027;-50
2023/12/17 02:08:47;;;;;;;23.95;15.55;;;4.60;99.90;;;;;;4954831;29;20086;-48
2023/12/17 02:11:12;;;;;;;30.02;17.85;;;4.70;99.90;;;;;;4920984;29;20106;-50
2023/12/17 02:13:38;;;;;;;20.40;13.27;;;4.70;99.90;;;;;;4954787;29;20494;-51
2023/12/17 02:16:04;;;;;;;15.90;11.68;;;4.60;99.90;;;;;;4954917;29;20027;-52
2023/12/17 02:18:30;;;;;;;16.15;11.48;;;4.50;99.90;;;;;;4955057;29;20059;-52
2023/12/17 02:20:57;;;;;;;16.27;11.90;;;4.50;99.90;;;;;;4905186;29;20442;-48
2023/12/17 02:23:23;;;;;;;16.58;10.88;;;4.50;99.90;;;;;;4954720;29;20034;-51
2023/12/17 02:25:49;;;;;;;19.42;13.02;;;4.40;99.90;;;;;;4954574;29;20063;-49
2023/12/17 02:28:14;;;;;;;18.00;12.50;;;4.40;99.90;;;;;;4954487;28;20077;-52
2023/12/17 02:30:40;;;;;;;18.08;12.30;;;4.50;99.90;;;;;;4904804;29;20035;-49
2023/12/17 02:33:06;;;;;;;19.65;13.27;;;4.50;99.90;;;;;;4954912;29;20059;-52
2023/12/17 02:35:32;;;;;;;22.23;14.77;;;4.60;99.90;;;;;;4905090;29;20093;-51
2023/12/17 02:37:57;;;;;;;22.10;13.70;;;4.60;99.90;;;;;;4954517;29;20027;-52
2023/12/17 02:40:23;;;;;;;23.23;15.05;;;4.70;99.90;;;;;;4954586;29;20027;-49
2023/12/17 02:42:49;;;;;;;24.17;15.27;;;4.70;99.90;;;;;;4954203;29;20035;-52
2023/12/17 02:45:15;;;;;;;18.77;12.50;;;4.70;99.90;;;;;;4904663;29;20066;-51
2023/12/17 02:47:40;;;;;;;21.08;12.88;;;4.70;99.90;;;;;;4954082;29;20027;-49
2023/12/17 02:50:07;;;;;;;19.02;11.98;;;4.80;99.90;;;;;;4954399;29;20147;-49
2023/12/17 02:52:32;;;;;;;17.15;11.52;;;4.70;99.90;;;;;;4954152;29;20027;-51
2023/12/17 02:54:58;;;;;;;15.70;11.90;;;4.60;99.90;;;;;;4888636;29;20046;-51
2023/12/17 02:57:25;;;;;;;17.45;12.02;;;4.60;99.90;;;;;;4954160;29;20031;-48
2023/12/17 02:59:54;;;;;;;15.75;11.32;;;4.60;99.90;;;;;;4953783;29;20055;-50
2023/12/17 03:02:20;;;;;;;18.23;10.32;;;4.60;99.90;;;;;;4954298;29;20462;-51
2023/12/17 03:04:46;;;;;;;16.52;11.80;;;4.50;99.90;;;;;;4953836;29;20114;-49
2023/12/17 03:07:12;;;;;;;15.57;9.98;;;4.50;99.90;;;;;;4954236;29;20098;-51
2023/12/17 03:09:38;;;;;;;14.50;10.63;;;4.40;99.90;;;;;;4953610;29;20106;-48
2023/12/17 03:12:04;;;;;;;17.55;11.95;;;4.30;99.90;;;;;;4954045;29;20110;-48
2023/12/17 03:14:33;;;;;;;19.73;12.85;;;4.40;99.90;;;;;;4904454;29;20043;-50
2023/12/17 03:16:59;;;;;;;30.05;17.98;;;4.50;99.90;;;;;;4954080;29;20038;-51
2023/12/17 03:19:25;;;;;;;24.95;15.95;;;4.50;99.90;;;;;;4953912;29;20027;-50
2023/12/17 03:21:50;;;;;;;32.28;20.70;;;4.50;99.90;;;;;;4953727;29;20110;-48
2023/12/17 03:24:16;;;;;;;21.83;13.88;;;4.50;99.90;;;;;;4953938;29;20130;-51
2023/12/17 03:26:42;;;;;;;23.38;14.13;;;4.50;99.90;;;;;;4954007;29;20408;-50
2023/12/17 03:29:08;;;;;;;21.40;14.73;;;4.50;99.90;;;;;;4951613;29;20054;-52
2023/12/17 03:31:33;;;;;;;23.48;15.75;;;4.40;99.90;;;;;;4904350;29;20661;-50
2023/12/17 03:34:00;;;;;;;36.83;24.27;;;4.40;99.90;;;;;;4954104;29;20031;-50
2023/12/17 03:36:26;;;;;;;22.25;12.77;;;4.40;99.90;;;;;;4953691;29;20505;-52
2023/12/17 03:38:52;;;;;;;15.35;11.25;;;4.50;99.90;;;;;;4954309;28;20027;-52
2023/12/17 03:41:27;;;;;;;14.73;11.23;;;4.50;99.90;;;;;;4957568;29;20170;-50
2023/12/17 03:43:55;;;;;;;18.65;12.90;;;4.40;99.90;;;;;;4898109;29;20036;-51
2023/12/17 03:46:23;;;;;;;18.55;13.57;;;4.40;99.90;;;;;;4898096;29;20063;-50
2023/12/17 03:48:49;;;;;;;19.25;13.77;;;4.20;99.90;;;;;;4898100;29;20045;-49
2023/12/17 03:51:16;;;;;;;20.52;14.55;;;4.10;99.90;;;;;;4897991;29;20092;-50
2023/12/17 03:53:41;;;;;;;18.73;12.95;;;3.60;99.90;;;;;;4898073;29;20043;-52
2023/12/17 03:56:12;;;;;;;19.63;13.57;;;2.80;99.90;;;;;;4897847;29;20048;-52
2023/12/17 03:58:38;;;;;;;21.70;14.15;;;2.70;99.90;;;;;;4897647;29;20188;-49
2023/12/17 04:01:07;;;;;;;23.63;15.73;;;2.90;99.90;;;;;;4897916;29;20524;-51
2023/12/17 04:03:33;;;;;;;23.42;15.82;;;3.00;99.90;;;;;;4897807;29;20583;-51
2023/12/17 04:06:00;;;;;;;26.02;16.80;;;3.20;99.90;;;;;;4897697;29;20069;-49
2023/12/17 04:08:27;;;;;;;28.67;19.77;;;3.10;99.90;;;;;;4897727;29;20037;-49
2023/12/17 04:10:52;;;;;;;23.45;16.05;;;3.00;99.90;;;;;;4897854;29;20047;-50
2023/12/17 04:13:18;;;;;;;27.80;17.27;;;3.00;99.90;;;;;;4897689;29;20044;-51
2023/12/17 04:15:44;;;;;;;26.67;18.45;;;2.90;99.90;;;;;;4899450;29;20043;-49
2023/12/17 04:18:10;;;;;;;23.15;16.33;;;2.90;99.90;;;;;;4937755;29;20024;-48
2023/12/17 04:20:35;;;;;;;26.00;18.42;;;3.10;99.90;;;;;;4937858;29;20074;-51
2023/12/17 04:23:01;;;;;;;19.40;14.43;;;2.90;99.90;;;;;;4937709;29;20089;-50
2023/12/17 04:25:27;;;;;;;20.08;13.18;;;2.70;99.90;;;;;;4937757;29;20028;-50
2023/12/17 04:27:53;;;;;;;18.67;11.80;;;2.50;99.90;;;;;;4937611;29;20028;-52
2023/12/17 04:30:18;;;;;;;18.65;12.10;;;2.60;99.90;;;;;;4937363;29;20032;-51
2023/12/17 04:32:44;;;;;;;14.25;9.68;;;2.60;99.90;;;;;;4919376;29;20043;-50
2023/12/17 04:35:10;;;;;;;14.57;10.82;;;2.10;99.90;;;;;;4937519;29;20035;-50
2023/12/17 04:37:36;;;;;;;17.77;10.98;;;;;;;;;;4937275;29;20088;-49
2023/12/17 04:40:03;;;;;;;14.93;10.82;;;1.80;99.90;;;;;;4937390;29;20038;-49
2023/12/17 04:42:29;;;;;;;16.75;10.45;;;2.00;99.90;;;;;;4937567;29;20047;-49
2023/12/17 04:44:55;;;;;;;17.60;10.57;;;1.90;99.90;;;;;;4936530;29;20428;-50
2023/12/17 04:47:22;;;;;;;15.30;9.40;;;1.90;99.90;;;;;;4903172;29;20042;-50
2023/12/17 04:49:48;;;;;;;16.73;10.65;;;1.40;99.90;;;;;;4935308;29;20031;-52
2023/12/17 04:52:14;;;;;;;13.88;10.13;;;1.40;99.90;;;;;;4937191;29;20034;-48
2023/12/17 04:54:39;;;;;;;15.80;11.10;;;1.30;99.90;;;;;;4919224;29;20035;-51
2023/12/17 04:57:05;;;;;;;18.08;11.57;;;1.20;99.90;;;;;;4937114;29;20032;-51
2023/12/17 04:59:31;;;;;;;13.63;7.90;;;1.20;99.90;;;;;;4902936;29;20203;-52
2023/12/17 05:01:57;;;;;;;16.73;12.10;;;;;;;;;;4903090;29;20503;-49
2023/12/17 05:04:23;;;;;;;10.90;5.72;;;0.70;99.90;;;;;;4936894;29;20040;-52
2023/12/17 05:06:48;;;;;;;10.40;6.43;;;0.50;99.90;;;;;;4936871;29;20038;-48
2023/12/17 05:09:15;;;;;;;13.05;7.53;;;0.50;99.90;;;;;;4918752;29;20067;-54
2023/12/17 05:11:40;;;;;;;19.65;11.05;;;0.50;99.90;;;;;;4936823;29;20054;-49
2023/12/17 05:14:06;;;;;;;17.35;10.75;;;0.60;99.90;;;;;;4934636;29;20047;-51
2023/12/17 05:16:32;;;;;;;16.35;11.85;;;0.70;99.90;;;;;;4936979;29;20429;-50
2023/12/17 05:18:58;;;;;;;19.35;12.90;;;0.70;99.90;;;;;;4935298;29;20019;-53
2023/12/17 05:21:24;;;;;;;20.58;14.77;;;0.80;99.90;;;;;;4934464;29;20044;-53
2023/12/17 05:23:50;;;;;;;21.15;14.57;;;1.00;99.90;;;;;;4935497;29;20083;-50
2023/12/17 05:26:17;;;;;;;17.05;11.85;;;1.00;99.90;;;;;;4935437;29;20039;-52
2023/12/17 05:28:43;;;;;;;16.30;10.88;;;0.90;99.90;;;;;;4935401;29;20032;-52
2023/12/17 05:31:10;;;;;;;19.10;12.70;;;0.90;99.90;;;;;;4936747;29;20034;-50
2023/12/17 05:33:36;;;;;;;19.80;13.60;;;0.90;99.90;;;;;;4935025;29;20038;-51
2023/12/17 05:36:04;;;;;;;22.88;15.52;;;1.00;99.90;;;;;;4914947;29;20036;-51
2023/12/17 05:38:30;;;;;;;19.98;15.35;;;1.10;99.90;;;;;;4914599;29;20048;-51
2023/12/17 05:40:57;;;;;;;23.15;18.00;;;1.10;99.90;;;;;;4883509;29;20040;-50
2023/12/17 05:43:25;;;;;;;33.05;24.95;;;1.10;99.90;;;;;;4914859;29;20043;-53
2023/12/17 05:45:51;;;;;;;46.60;32.28;;;1.20;99.90;;;;;;4899191;29;20032;-50
2023/12/17 05:48:16;;;;;;;43.78;33.58;;;1.60;99.90;;;;;;4914744;29;20051;-50
2023/12/17 05:50:43;;;;;;;27.13;19.63;;;1.60;99.90;;;;;;4914412;29;20127;-49
2023/12/17 05:53:09;;;;;;;31.20;19.23;;;1.60;99.90;;;;;;4914744;29;20111;-51
2023/12/17 05:55:36;;;;;;;25.48;18.52;;;1.50;99.90;;;;;;4914455;29;20036;-51
2023/12/17 05:58:02;;;;;;;22.63;14.25;;;1.40;99.90;;;;;;4898933;29;20032;-50
2023/12/17 06:00:27;;;;;;;20.92;16.13;;;1.30;99.90;;;;;;4912104;29;20060;-50
2023/12/17 06:02:53;;;;;;;29.20;21.50;;;1.00;99.90;;;;;;4873863;29;20148;-51
2023/12/17 06:05:19;;;;;;;22.83;17.42;;;1.00;99.90;;;;;;4914483;29;20039;-49
2023/12/17 06:07:44;;;;;;;21.90;15.73;;;1.10;99.90;;;;;;4926424;29;20042;-49
2023/12/17 06:10:10;;;;;;;21.35;16.15;;;1.20;99.90;;;;;;4917443;29;20035;-53
2023/12/17 06:12:36;;;;;;;18.08;12.23;;;1.40;99.90;;;;;;4935147;29;20039;-50
2023/12/17 06:15:03;;;;;;;18.98;12.25;;;1.30;99.90;;;;;;4932742;29;20024;-48
2023/12/17 06:17:28;;;;;;;16.63;11.48;;;1.30;99.90;;;;;;4934963;29;20111;-50
2023/12/17 06:19:54;;;;;;;18.13;11.35;;;1.30;99.90;;;;;;4933952;29;20126;-49
2023/12/17 06:22:20;;;;;;;18.15;11.70;;;1.20;99.90;;;;;;4934744;29;20035;-51
2023/12/17 06:24:46;;;;;;;22.60;15.13;;;1.30;99.90;;;;;;4932189;29;20050;-50
2023/12/17 06:27:16;;;;;;;32.65;27.67;;;1.20;99.90;;;;;;4916610;29;20036;-51
2023/12/17 06:29:42;;;;;;;22.00;14.90;;;1.20;99.90;;;;;;4932817;29;20079;-51
2023/12/17 06:32:09;;;;;;;22.73;16.17;;;1.10;99.90;;;;;;4930293;29;20023;-52
2023/12/17 06:34:35;;;;;;;20.35;13.80;;;1.00;99.90;;;;;;4915815;29;20038;-53
2023/12/17 06:37:01;;;;;;;22.98;16.25;;;0.90;99.90;;;;;;4927333;29;20095;-51
2023/12/17 06:39:27;;;;;;;21.15;13.48;;;0.90;99.90;;;;;;4924686;29;20512;-50
2023/12/17 06:41:53;;;;;;;24.25;15.38;;;0.80;99.90;;;;;;4916460;29;20048;-51
2023/12/17 06:44:18;;;;;;;27.90;17.90;;;0.80;99.90;;;;;;4883798;29;20647;-50
2023/12/17 06:46:44;;;;;;;31.35;18.70;;;0.90;99.90;;;;;;4919167;29;20071;-47
2023/12/17 06:49:10;;;;;;;28.20;17.83;;;1.00;99.90;;;;;;4919031;29;20644;-50
2023/12/17 06:51:39;;;;;;;22.98;15.38;;;1.90;99.90;;;;;;4930033;29;20055;-52
2023/12/17 06:54:06;;;;;;;21.08;14.57;;;3.00;99.90;;;;;;4924443;29;20020;-51
2023/12/17 06:56:32;;;;;;;20.00;12.55;;;4.00;99.90;;;;;;4922413;29;20036;-52
2023/12/17 06:58:57;;;;;;;19.75;12.45;;;4.50;99.90;;;;;;4929127;29;20063;-50
2023/12/17 07:01:23;;;;;;;21.65;14.13;;;5.20;99.90;;;;;;4932608;29;20151;-50
2023/12/17 07:03:50;;;;;;;23.15;15.45;;;;;;;;;;4932422;29;20059;-52
2023/12/17 07:06:15;;;;;;;21.92;14.98;;;7.20;99.90;;;;;;4926446;29;20032;-50
2023/12/17 07:08:41;;;;;;;19.52;15.02;;;8.50;99.90;;;;;;4931082;29;20032;-50
2023/12/17 07:11:08;;;;;;;22.17;14.80;;;8.60;96.30;;;;;;4933719;29;20028;-51
2023/12/17 07:13:34;;;;;;;19.83;14.23;;;7.10;99.90;;;;;;4934276;29;20078;-50
2023/12/17 07:16:00;;;;;;;21.58;15.05;;;7.70;99.90;;;;;;4916642;29;20451;-49
2023/12/17 07:18:25;;;;;;;18.63;13.70;;;8.40;96.80;;;;;;4934714;29;20027;-49
2023/12/17 07:20:51;;;;;;;19.42;14.00;;;9.90;94.70;;;;;;4934654;29;20416;-49
2023/12/17 07:23:17;;;;;;;21.77;14.45;;;;;;;;;;4916289;29;20075;-50
2023/12/17 07:25:43;;;;;;;18.17;14.05;;;9.00;93.80;;;;;;4934741;29;20031;-50
2023/12/17 07:28:09;;;;;;;22.13;15.65;;;9.60;93.80;;;;;;4934752;29;20090;-50
2023/12/17 07:30:35;;;;;;;22.30;16.42;;;10.10;93.10;;;;;;4934570;29;20028;-50
2023/12/17 07:33:00;;;;;;;25.95;19.65;;;10.50;92.50;;;;;;4934836;29;20107;-50
2023/12/17 07:35:26;;;;;;;22.80;17.55;;;10.70;92.10;;;;;;4916676;29;20506;-50
2023/12/17 07:37:52;;;;;;;27.20;20.25;;;;;;;;;;4934534;29;20111;-50
2023/12/17 07:40:18;;;;;;;25.83;16.95;;;;;;;;;;4935053;29;20083;-50
2023/12/17 07:42:44;;;;;;;22.85;16.77;;;11.90;99.90;;;;;;4934804;29;20036;-50
2023/12/17 07:45:10;;;;;;;53.08;35.58;;;;;;;;;;4932930;29;20054;-50
2023/12/17 07:47:36;;;;;;;25.25;19.05;;;12.70;99.90;;;;;;4934367;29;20471;-50
2023/12/17 07:50:02;;;;;;;35.17;25.60;;;;;;;;;;4934403;29;20026;-50
2023/12/17 07:52:28;;;;;;;27.35;19.20;;;13.70;89.10;;;;;;4934439;29;20128;-50
2023/12/17 07:54:53;;;;;;;22.73;18.48;;;14.10;87.80;;;;;;4934221;29;20063;-50
2023/12/17 07:57:20;;;;;;;25.83;18.38;;;;;;;;;;4915799;29;20039;-50
2023/12/17 07:59:47;;;;;;;21.75;18.33;;;16.30;99.90;;;;;;4945605;29;20051;-50
2023/12/17 08:02:14;;;;;;;30.48;25.98;;;;;;;;;;4953616;29;20463;-51
2023/12/17 08:04:41;;;;;;;22.45;18.70;;;19.40;95.50;;;;;;4953552;29;20035;-50
2023/12/17 08:07:09;;;;;;;20.13;17.63;;;20.00;79.40;;;;;;4953300;29;20046;-50
2023/12/17 08:09:35;;;;;;;20.92;17.70;;;;;;;;;;4953539;29;20042;-51
2023/12/17 08:12:02;;;;;;;30.23;24.50;;;20.40;77.20;;;;;;4953411;29;20023;-50
2023/12/17 08:14:28;;;;;;;25.25;21.58;;;19.30;76.20;;;;;;4951332;29;20035;-49
2023/12/17 08:16:54;;;;;;;22.45;18.45;;;19.20;76.30;;;;;;4953179;29;20067;-50
2023/12/17 08:19:20;;;;;;;22.27;18.80;;;19.00;75.80;;;;;;4951445;29;20081;-49
2023/12/17 08:21:45;;;;;;;23.52;19.92;;;19.40;75.60;;;;;;4953238;29;20483;-48
2023/12/17 08:24:11;;;;;;;21.40;18.83;;;20.10;75.60;;;;;;4951170;28;20180;-49
2023/12/17 08:26:37;;;;;;;22.13;18.83;;;19.20;74.80;;;;;;4954386;29;20051;-48
2023/12/17 08:29:03;;;;;;;20.58;18.40;;;;;;;;;;4950081;29;20039;-49
2023/12/17 08:31:29;;;;;;;20.92;18.67;;;20.00;74.50;;;;;;4945580;29;20036;-49
2023/12/17 08:33:55;;;;;;;23.55;20.60;;;;;;;;;;4947325;29;20074;-48
2023/12/17 08:36:25;;;;;;;25.25;21.10;;;;;;;;;;4946437;29;20027;-49
2023/12/17 08:38:51;;;;;;;26.50;21.42;;;;;;;;;;4928364;29;20028;-49
2023/12/17 08:41:17;;;;;;;27.63;24.45;;;;;;;;;;4947144;29;20027;-49
2023/12/17 08:43:43;;;;;;;27.50;24.50;;;24.80;71.00;;;;;;4946474;29;20035;-49
2023/12/17 08:46:09;;;;;;;32.00;25.45;;;;;;;;;;4872134;29;20041;-49
2023/12/17 08:48:35;;;;;;;40.22;29.88;;;;;;;;;;4870606;29;20405;-50
2023/12/17 08:51:01;;;;;;;56.72;35.00;;;;;;;;;;4887145;29;20040;-49
2023/12/17 08:53:27;;;;;;;35.63;26.85;;;26.00;68.00;;;;;;4887857;29;20040;-49
2023/12/17 08:55:53;;;;;;;26.45;22.83;;;;;;;;;;4885851;29;20033;-49
2023/12/17 08:58:19;;;;;;;26.58;23.23;;;;;;;;;;4887156;29;20111;-49
2023/12/17 09:00:45;;;;;;;26.60;23.15;;;26.20;67.00;;;;;;4887316;29;20037;-49
2023/12/17 09:03:11;;;;;;;25.13;20.98;;;;;;;;;;4885806;29;20394;-49
2023/12/17 09:05:37;;;;;;;25.02;21.33;;;;;;;;;;4871931;29;20024;-49
2023/12/17 09:08:03;;;;;;;21.73;19.42;;;25.40;84.50;;;;;;4856231;29;20036;-49
2023/12/17 09:10:28;;;;;;;23.08;20.67;;;25.50;88.60;;;;;;4865720;29;20049;-49
2023/12/17 09:12:54;;;;;;;21.67;19.40;;;;;;;;;;4865277;29;20052;-49
2023/12/17 09:15:21;;;;;;;26.38;22.60;;;26.00;67.80;;;;;;4896518;29;20037;-49
2023/12/17 09:17:49;;;;;;;25.33;22.60;;;;;;;;;;4942092;29;20069;-49
2023/12/17 09:20:16;;;;;;;23.67;21.25;;;;;;;;;;4955893;29;20031;-49
2023/12/17 09:22:42;;;;;;;22.88;20.40;;;;;;;;;;4955746;29;20578;-49
2023/12/17 09:25:09;;;;;;;23.55;20.60;;;25.90;67.30;;;;;;4955991;29;20106;-49
2023/12/17 09:27:35;;;;;;;24.17;21.05;;;26.00;67.90;;;;;;4955974;29;20118;-49
2023/12/17 09:30:01;;;;;;;25.08;22.20;;;26.00;67.30;;;;;;4956049;29;20538;-49
2023/12/17 09:32:27;;;;;;;21.92;19.55;;;26.30;77.70;;;;;;4921973;29;20117;-49
2023/12/17 09:34:53;;;;;;;22.75;20.35;;;;;;;;;;4953571;29;20042;-49
2023/12/17 09:37:20;;;;;;;22.25;19.98;;;;;;;;;;4955784;28;20031;-49
2023/12/17 09:39:46;;;;;;;24.35;20.83;;;;;;;;;;4955636;29;20187;-49
2023/12/17 09:42:12;;;;;;;28.13;24.05;;;26.20;85.10;;;;;;4921582;29;20044;-49
2023/12/17 09:44:39;;;;;;;30.35;24.50;;;25.80;66.90;;;;;;4955513;29;20097;-49
2023/12/17 09:47:06;;;;;;;32.90;28.00;;;;;;;;;;4955913;29;20027;-49
2023/12/17 09:49:32;;;;;;;34.17;29.38;;;25.70;86.30;;;;;;4955323;29;20058;-49
2023/12/17 09:52:06;;;;;;;33.25;27.02;;;25.50;66.60;;;;;;4955463;29;20126;-50
2023/12/17 09:54:33;;;;;;;34.03;28.25;;;;;;;;;;4955145;29;20043;-49
2023/12/17 09:57:00;;;;;;;45.80;35.78;;;25.90;70.30;;;;;;4955262;29;20027;-49
2023/12/17 09:59:26;;;;;;;49.85;39.67;;;25.50;73.70;;;;;;4955321;29;20581;-49
2023/12/17 10:01:52;;;;;;;44.80;33.67;;;25.40;72.00;;;;;;4921202;29;20376;-49
2023/12/17 10:04:25;;;;;;;32.60;28.10;;;25.10;67.40;;;;;;4955255;29;20031;-49
2023/12/17 10:06:52;;;;;;;27.65;24.77;;;25.40;67.30;;;;;;4952910;29;20035;-49
2023/12/17 10:09:18;;;;;;;30.77;27.60;;;25.30;67.90;;;;;;4954963;29;20078;-49
2023/12/17 10:11:44;;;;;;;24.65;22.15;;;24.30;66.90;;;;;;4954975;29;20023;-49
2023/12/17 10:14:22;;;;;;;22.25;14.45;;;24.70;66.70;;;;;;4921291;29;20387;-49
2023/12/17 10:16:49;;;;;;;21.05;14.30;;;25.10;65.80;;;;;;4954845;29;20098;-49
2023/12/17 10:19:15;;;;;;;15.02;12.88;;;25.30;65.60;;;;;;4954770;29;20043;-49
2023/12/17 10:21:41;;;;;;;18.17;15.75;;;25.00;65.20;;;;;;4920835;29;20043;-49
2023/12/17 10:24:41;;;;;;;17.90;14.77;;;24.60;66.30;;;;;;4925707;29;20042;-49
2023/12/17 10:27:18;;;;;;;17.33;15.60;;;;;;;;;;4952382;29;20031;-49
2023/12/17 10:29:48;;;;;;;18.00;15.52;;;;;;;;;;4952216;29;20042;-50
2023/12/17 10:32:14;;;;;;;12.93;11.63;;;24.50;96.10;;;;;;4949664;29;20503;-50
2023/12/17 10:34:41;;;;;;;14.50;12.85;;;;;;;;;;4936051;29;20035;-50
2023/12/17 10:37:08;;;;;;;23.33;17.13;;;24.40;97.00;;;;;;4936017;29;20063;-49
2023/12/17 10:39:34;;;;;;;17.95;14.57;;;;;;;;;;4952046;29;20039;-49
2023/12/17 10:42:02;;;;;;;16.40;13.57;;;24.60;96.70;;;;;;4952112;29;20039;-49
2023/12/17 10:44:28;;;;;;;11.70;10.43;;;23.90;66.00;;;;;;4935854;29;20042;-49
2023/12/17 10:46:57;;;;;;;10.82;9.27;;;24.10;66.20;;;;;;4951939;29;20334;-50
2023/12/17 10:49:23;;;;;;;8.75;7.85;;;23.10;65.90;;;;;;4951519;29;20070;-49
2023/12/17 10:51:49;;;;;;;12.00;10.10;;;22.60;65.90;;;;;;4951863;29;20073;-50
2023/12/17 10:54:15;;;;;;;12.15;10.45;;;;;;;;;;4935876;29;20379;-49
2023/12/17 10:56:54;;;;;;;6.10;5.47;;;23.40;66.20;;;;;;4954083;29;20035;-50
2023/12/17 10:59:40;;;;;;;7.57;6.80;;;23.20;64.70;;;;;;4953992;29;20059;-49
2023/12/17 11:02:09;;;;;;;7.93;7.10;;;23.00;65.00;;;;;;4954386;29;20094;-49
2023/12/17 11:04:34;;;;;;;17.90;15.73;;;23.10;65.20;;;;;;4954054;29;20031;-51
2023/12/17 11:07:00;;;;;;;69.60;57.42;;;22.70;65.30;;;;;;4952021;29;20045;-49
2023/12/17 11:09:26;;;;;;;141.23;105.38;;;22.60;65.40;;;;;;4920173;29;20043;-49
2023/12/17 11:11:52;;;;;;;110.45;87.90;;;21.20;65.70;;;;;;4953965;29;20034;-49
2023/12/17 11:14:18;;;;;;;46.58;35.38;;;21.80;91.70;;;;;;4954469;29;20060;-49
2023/12/17 11:16:45;;;;;;;20.00;16.63;;;22.00;67.10;;;;;;4953759;29;20523;-49
2023/12/17 11:19:14;;;;;;;15.85;12.27;;;;;;;;;;4953969;29;20043;-49
2023/12/17 11:21:41;;;;;;;17.27;13.88;;;;;;;;;;4951644;29;20044;-49
2023/12/17 11:24:08;;;;;;;19.70;14.90;;;20.50;92.20;;;;;;4953861;29;20125;-49
2023/12/17 11:26:41;;;;;;;10.95;8.30;;;;;;;;;;4954133;29;20047;-49
2023/12/17 11:29:26;;;;;;;11.77;8.30;;;;;;;;;;4953801;29;20039;-50
2023/12/17 11:31:52;;;;;;;12.85;9.27;;;20.40;89.30;;;;;;4953946;29;20448;-50
2023/12/17 11:34:18;;;;;;;11.63;7.97;;;20.50;93.80;;;;;;4954077;29;20114;-49
2023/12/17 11:36:44;;;;;;;7.43;6.57;;;19.90;67.60;;;;;;4953625;29;20093;-49
2023/12/17 11:39:10;;;;;;;9.88;8.48;;;19.60;67.70;;;;;;4951707;29;20130;-49
2023/12/17 11:41:35;;;;;;;8.57;7.60;;;19.40;68.40;;;;;;4953594;29;20122;-49
2023/12/17 11:44:01;;;;;;;8.45;7.20;;;19.70;83.00;;;;;;4953934;29;20087;-49
2023/12/17 11:46:27;;;;;;;8.85;7.10;;;20.30;72.80;;;;;;4953703;29;20042;-49
2023/12/17 11:48:53;;;;;;;7.97;6.50;;;20.30;73.10;;;;;;4953543;29;20102;-49
2023/12/17 11:51:25;;;;;;;8.10;6.30;;;;;;;;;;4953604;29;20118;-49
2023/12/17 11:53:52;;;;;;;7.30;5.60;;;20.10;68.60;;;;;;4953729;29;20038;-48
2023/12/17 11:56:28;;;;;;;9.30;7.57;;;19.70;69.10;;;;;;4953638;29;20126;-48
2023/12/17 11:58:54;;;;;;;9.27;7.32;;;;;;;;;;4953156;28;20047;-49
2023/12/17 12:01:20;;;;;;;8.90;7.88;;;;;;;;;;4956985;29;20035;-49
2023/12/17 12:03:46;;;;;;;7.93;5.90;;;17.70;70.90;;;;;;4957753;29;20039;-49
2023/12/17 12:06:14;;;;;;;18.63;11.98;;;17.10;71.80;;;;;;4957360;29;20036;-48
2023/12/17 12:08:41;;;;;;;51.72;23.63;;;;;;;;;;4957137;29;20046;-49
2023/12/17 12:11:12;;;;;;;44.80;20.23;;;17.30;72.40;;;;;;4957234;29;20039;-49
2023/12/17 12:13:43;;;;;;;29.15;13.60;;;17.40;73.60;;;;;;4957058;29;20075;-48
2023/12/17 12:16:09;;;;;;;15.67;9.93;;;17.40;73.50;;;;;;4957044;29;20023;-49
2023/12/17 12:18:35;;;;;;;11.70;8.40;;;17.50;73.70;;;;;;4954732;29;20118;-50
2023/12/17 12:21:01;;;;;;;17.38;9.43;;;17.20;73.20;;;;;;4957198;29;20040;-49
2023/12/17 12:23:27;;;;;;;12.30;8.32;;;;;;;;;;4907469;29;20601;-49
2023/12/17 12:26:00;;;;;;;9.60;6.40;;;;;;;;;;4956883;29;20031;-49
2023/12/17 12:28:28;;;;;;;8.60;6.20;;;16.00;73.50;;;;;;4939642;29;20395;-48
2023/12/17 12:30:55;;;;;;;40.08;19.50;;;;;;;;;;4956664;29;20596;-49
2023/12/17 12:33:21;;;;;;;18.20;11.30;;;15.10;91.10;;;;;;4957229;29;20033;-48
2023/12/17 12:35:48;;;;;;;13.25;8.27;;;15.10;76.10;;;;;;4956662;29;20106;-48
2023/12/17 12:38:20;;;;;;;9.85;7.63;;;;;;;;;;4957001;29;20106;-48
2023/12/17 12:40:47;;;;;;;8.60;6.28;;;14.30;76.00;;;;;;4956505;29;20039;-50
2023/12/17 12:43:14;;;;;;;11.50;8.07;;;13.90;77.00;;;;;;4956836;29;20043;-49
2023/12/17 12:45:41;;;;;;;7.38;6.13;;;14.50;78.10;;;;;;4956487;29;20062;-49
2023/12/17 12:48:26;;;;;;;10.30;7.20;;;14.10;77.40;;;;;;4956629;29;20130;-49